Weather at Tucupita Airport

Public forecast

Using degrees Celsius for public forecast. Weather courtesy of forecast.io.

Closest aviation weather report (METAR) to Tucupita Airport

Report is more than 6 hours old.

Closest report is General Manuel Carlos Piar International Airport, 62.2 nm (115.3 km) SW. Retrieved 2016/04/05 16:00 UTC (4 years ago):

SVPR 051600Z 02008KT 9999 BKN020 XX/XX Q1016

Closest aviation forecast (TAF) to Tucupita Airport

Closest forecast is Piarco International Airport, 100.9 nm (186.9 km) NNE. Retrieved 2020/09/24 18:34 UTC (2 hours ago):

TAF TTPP 241600Z 2418/2518 12010KT 9999 FEW025 BECMG 2500/2502 10003KT FEW016 BECMG 2512/2514 09010KT FEW020